Time;durP1;ratioP1;P1;durP2;ratioP2;P2;SDS_P1;SDS_P2;PMS_P1;PMS_P2;Temp;Humidity;BMP_temperature;BMP_pressure;BME280_temperature;BME280_humidity;BME280_pressure;Samples;Min_cycle;Max_cycle;Signal;HPM_P1;HPM_P2
2022/07/29 00:01:03;;;;;;;;;;;;;;;27.42;63.39;101384.88;4992499;28;19914;-85
2022/07/29 00:03:28;;;;;;;;;;;;;;;27.43;63.43;101383.06;4975166;28;20029;-85
2022/07/29 00:05:55;;;;;;;;;;;;;;;27.43;63.38;101377.72;4993860;28;19976;-85
2022/07/29 00:08:20;;;;;;;;;;;;;;;27.42;63.36;101382.19;4996202;28;19917;-85
2022/07/29 00:10:46;;;;;;;;;;;;;;;27.39;63.42;101375.97;4973003;28;19925;-85
2022/07/29 00:13:11;;;;;;;;;;;;;;;27.38;63.45;101377.75;4968086;28;19992;-85
2022/07/29 00:15:36;;;;;;;;;;;;;;;27.40;63.03;101381.31;4993907;28;19950;-85
2022/07/29 00:18:03;;;;;;;;;;;;;;;27.41;63.11;101374.16;4995140;28;19913;-83
2022/07/29 00:20:28;;;;;;;;;;;;;;;27.39;63.20;101379.53;4952128;28;19953;-85
2022/07/29 00:22:54;;;;;;;;;;;;;;;27.38;63.02;101379.53;4979868;28;19969;-85
2022/07/29 00:25:19;;;;;;;;;;;;;;;27.39;63.13;101376.88;4988162;28;19961;-86
2022/07/29 00:27:45;;;;;;;;;;;;;;;27.38;63.09;101379.53;4985233;28;20487;-85
2022/07/29 00:30:11;;;;;;;;;;;;;;;27.37;63.02;101372.41;4992917;28;20000;-85
2022/07/29 00:32:37;;;;;;;;;;;;;;;27.37;63.12;101375.09;4978783;28;20403;-83
2022/07/29 00:37:46;;;;;;;;;;;;;;;27.37;63.09;101369.72;4970634;28;19964;-84
2022/07/29 00:40:12;;;;;;;;;;;;;;;27.36;62.63;101376.84;4993145;28;19913;-84
2022/07/29 00:42:47;;;;;;;;;;;;;;;27.35;62.66;101376.91;4978391;28;19918;-84
2022/07/29 00:45:13;;;;;;;;;;;;;;;27.32;62.47;101372.41;4978027;28;19972;-83
2022/07/29 00:47:41;;;;;;;;;;;;;;;27.33;62.30;101374.22;4977881;28;20476;-84
2022/07/29 00:50:07;;;;;;;;;;;;;;;27.31;62.44;101370.66;4977656;28;19968;-85
2022/07/29 00:52:36;;;;;;;;;;;;;;;27.30;62.45;101371.53;4973773;28;19934;-85
2022/07/29 00:55:03;;;;;;;;;;;;;;;27.29;62.73;101363.50;4969286;28;19914;-84
2022/07/29 00:57:28;;;;;;;;;;;;;;;27.30;62.30;101365.28;4977822;28;19936;-85
2022/07/29 00:59:54;;;;;;;;;;;;;;;27.29;62.34;101367.06;4995484;28;20388;-84
2022/07/29 01:02:19;;;;;;;;;;;;;;;27.28;62.23;101365.28;4995305;28;20347;-84
2022/07/29 01:04:44;;;;;;;;;;;;;;;27.28;62.45;101362.59;4977908;28;19937;-83
2022/07/29 01:07:10;;;;;;;;;;;;;;;27.31;62.16;101361.72;4995665;28;20430;-84
2022/07/29 01:09:35;;;;;;;;;;;;;;;27.28;61.86;101357.22;4981176;28;19936;-84
2022/07/29 01:12:01;;;;;;;;;;;;;;;27.28;62.08;101356.34;4961721;28;19942;-85
2022/07/29 01:14:26;;;;;;;;;;;;;;;27.26;61.99;101351.00;4977775;28;19968;-84
2022/07/29 01:16:55;;;;;;;;;;;;;;;27.28;62.22;101351.00;4977052;28;20406;-84
2022/07/29 01:19:39;;;;;;;;;;;;;;;27.28;62.27;101349.19;4976768;28;19918;-85
2022/07/29 01:22:16;;;;;;;;;;;;;;;27.28;61.92;101351.88;4983619;28;19914;-85
2022/07/29 01:25:17;;;;;;;;;;;;;;;27.25;62.15;101351.03;4974675;28;19933;-85
2022/07/29 01:28:00;;;;;;;;;;;;;;;27.24;62.04;101357.25;4906737;29;19919;-85
2022/07/29 01:30:26;;;;;;;;;;;;;;;27.27;61.76;101343.88;4977032;28;20008;-84
2022/07/29 01:32:54;;;;;;;;;;;;;;;27.25;61.83;101351.03;4977615;28;20378;-85
2022/07/29 01:35:26;;;;;;;;;;;;;;;27.22;61.80;101349.25;4977392;28;20458;-85
2022/07/29 01:38:01;;;;;;;;;;;;;;;27.22;61.77;101346.56;4994708;28;19914;-84
2022/07/29 01:40:35;;;;;;;;;;;;;;;27.21;62.16;101347.41;4994626;28;19972;-84
2022/07/29 01:43:03;;;;;;;;;;;;;;;27.21;61.87;101345.63;4994797;28;19917;-85
2022/07/29 01:45:31;;;;;;;;;;;;;;;27.23;61.70;101342.97;4960524;28;19914;-84
2022/07/29 01:48:05;;;;;;;;;;;;;;;27.21;61.77;101342.06;4994718;28;19924;-83
2022/07/29 01:50:34;;;;;;;;;;;;;;;27.26;61.43;101339.38;4976452;28;19925;-83
2022/07/29 01:53:01;;;;;;;;;;;;;;;27.22;61.54;101341.22;4994604;28;20013;-83
2022/07/29 01:55:28;;;;;;;;;;;;;;;27.18;61.94;101334.94;4976677;28;19914;-82
2022/07/29 01:57:54;;;;;;;;;;;;;;;27.17;61.67;101335.81;4960609;28;19914;-85
2022/07/29 02:00:19;;;;;;;;;;;;;;;27.18;61.92;101334.94;4976446;28;19914;-85
2022/07/29 02:02:45;;;;;;;;;;;;;;;27.19;61.46;101336.69;4976873;28;19987;-85
2022/07/29 02:05:12;;;;;;;;;;;;;;;27.18;61.79;101339.41;4976888;28;19917;-85
2022/07/29 02:07:38;;;;;;;;;;;;;;;27.18;61.59;101336.72;4976610;28;19980;-85
2022/07/29 02:10:03;;;;;;;;;;;;;;;27.17;61.61;101340.28;4976502;28;20383;-85
2022/07/29 02:12:29;;;;;;;;;;;;;;;27.18;61.72;101331.38;4976492;28;20419;-85
2022/07/29 02:14:54;;;;;;;;;;;;;;;27.15;61.75;101328.69;4976603;28;20004;-85
2022/07/29 02:17:28;;;;;;;;;;;;;;;27.16;61.46;101336.72;4976395;28;19975;-85
2022/07/29 02:19:55;;;;;;;;;;;;;;;27.18;61.61;101331.38;4976577;28;19921;-85
2022/07/29 02:22:20;;;;;;;;;;;;;;;27.16;61.54;101325.13;4959930;28;19918;-84
2022/07/29 02:24:46;;;;;;;;;;;;;;;27.14;61.75;101327.81;4976261;28;19921;-84
2022/07/29 02:27:11;;;;;;;;;;;;;;;27.14;61.84;101324.25;4967897;28;19957;-84
2022/07/29 02:29:37;;;;;;;;;;;;;;;27.14;61.74;101333.16;4953693;28;19913;-84
2022/07/29 02:32:02;;;;;;;;;;;;;;;27.14;61.83;101326.91;4976612;28;19971;-85
2022/07/29 02:34:28;;;;;;;;;;;;;;;27.13;61.68;101326.00;4976417;28;19913;-85
2022/07/29 02:36:54;;;;;;;;;;;;;;;27.12;61.72;101329.59;4975695;28;19920;-85
2022/07/29 02:39:19;;;;;;;;;;;;;;;27.12;61.59;101328.72;4976189;28;20425;-85
2022/07/29 02:41:47;;;;;;;;;;;;;;;27.11;61.95;101327.81;4993325;28;20064;-85
2022/07/29 02:44:14;;;;;;;;;;;;;;;27.11;61.73;101326.91;4976330;28;19921;-84
2022/07/29 02:47:00;;;;;;;;;;;;;;;27.12;61.75;101326.91;4976238;28;19914;-85
2022/07/29 02:49:34;;;;;;;;;;;;;;;27.12;61.97;101331.41;4962575;28;19928;-85
2022/07/29 02:52:03;;;;;;;;;;;;;;;27.11;62.03;101332.28;4992699;28;19941;-85
2022/07/29 02:54:39;;;;;;;;;;;;;;;27.10;61.75;101339.44;4976099;28;19914;-85
2022/07/29 02:57:06;;;;;;;;;;;;;;;27.11;61.92;101332.28;4975622;28;20023;-84
2022/07/29 02:59:32;;;;;;;;;;;;;;;27.11;61.79;101332.28;4975617;28;19961;-84
2022/07/29 03:01:58;;;;;;;;;;;;;;;27.10;61.83;101333.19;4975163;28;19914;-84
2022/07/29 03:04:24;;;;;;;;;;;;;;;27.09;62.04;101334.97;4975754;28;20372;-85
2022/07/29 03:06:49;;;;;;;;;;;;;;;27.09;62.02;101339.44;4975826;28;19968;-85
2022/07/29 03:09:15;;;;;;;;;;;;;;;27.09;61.92;101339.44;4946082;28;19918;-85
2022/07/29 03:11:41;;;;;;;;;;;;;;;27.07;62.17;101338.56;4992671;28;20395;-85
2022/07/29 03:14:06;;;;;;;;;;;;;;;27.09;61.84;101345.69;4992742;28;19980;-86
2022/07/29 03:16:32;;;;;;;;;;;;;;;27.08;62.25;101343.91;4967049;28;20037;-86
2022/07/29 03:18:57;;;;;;;;;;;;;;;27.07;62.21;101351.97;4970356;28;19961;-86
2022/07/29 03:21:23;;;;;;;;;;;;;;;27.06;62.27;101352.88;4975398;28;20378;-85
2022/07/29 03:23:48;;;;;;;;;;;;;;;27.07;62.07;101351.97;4992681;28;20008;-86
2022/07/29 03:26:14;;;;;;;;;;;;;;;27.05;62.28;101351.06;4992031;28;19921;-85
2022/07/29 03:28:39;;;;;;;;;;;;;;;27.05;62.10;101365.41;4979346;28;19914;-86
2022/07/29 03:31:05;;;;;;;;;;;;;;;27.06;62.11;101352.88;4975152;28;20029;-84
2022/07/29 03:33:30;;;;;;;;;;;;;;;27.05;62.33;101360.03;4992223;28;19961;-84
2022/07/29 03:35:56;;;;;;;;;;;;;;;27.07;62.05;101360.00;4955535;28;20016;-85
2022/07/29 03:38:21;;;;;;;;;;;;;;;27.06;62.00;101358.22;4971049;28;19918;-84
2022/07/29 03:40:51;;;;;;;;;;;;;;;27.05;62.08;101364.47;4974511;28;19914;-84
2022/07/29 03:43:17;;;;;;;;;;;;;;;27.03;62.33;101364.50;4974380;28;19920;-85
2022/07/29 03:45:43;;;;;;;;;;;;;;;27.04;62.24;101358.22;4974896;28;19914;-85
2022/07/29 03:48:09;;;;;;;;;;;;;;;27.04;62.27;101352.00;4958601;28;20005;-85
2022/07/29 03:50:37;;;;;;;;;;;;;;;27.02;62.11;101351.97;4954945;28;19930;-85
2022/07/29 03:53:03;;;;;;;;;;;;;;;27.01;62.11;101358.25;4939417;28;20028;-85
2022/07/29 03:55:28;;;;;;;;;;;;;;;26.99;62.23;101358.25;4955327;28;19973;-85
2022/07/29 03:57:54;;;;;;;;;;;;;;;26.99;62.36;101358.25;4938953;28;20447;-84
2022/07/29 04:00:19;;;;;;;;;;;;;;;27.00;62.19;101361.81;4954977;28;19914;-85
2022/07/29 04:02:48;;;;;;;;;;;;;;;26.99;62.39;101365.41;4972719;28;19941;-86
2022/07/29 04:05:13;;;;;;;;;;;;;;;26.98;62.41;101361.81;4955640;28;19918;-85
2022/07/29 04:07:39;;;;;;;;;;;;;;;26.99;62.16;101360.06;4972323;28;19918;-85
2022/07/29 04:10:05;;;;;;;;;;;;;;;26.98;62.12;101360.94;4939162;28;19922;-86
2022/07/29 04:12:30;;;;;;;;;;;;;;;26.97;62.37;101360.06;4971918;28;20005;-85
2022/07/29 04:15:03;;;;;;;;;;;;;;;26.98;62.21;101367.19;4955210;28;19914;-86
2022/07/29 04:17:28;;;;;;;;;;;;;;;26.97;62.41;101364.53;4936316;28;19918;-86
2022/07/29 04:19:54;;;;;;;;;;;;;;;26.97;62.33;101365.41;4946128;28;20053;-84
2022/07/29 04:22:19;;;;;;;;;;;;;;;26.97;62.33;101365.41;4955153;28;19914;-86
2022/07/29 04:24:44;;;;;;;;;;;;;;;26.95;62.50;101364.53;4963439;28;20015;-86
2022/07/29 04:27:10;;;;;;;;;;;;;;;26.96;62.22;101368.97;4964348;28;20122;-86
2022/07/29 04:29:35;;;;;;;;;;;;;;;26.95;62.61;101369.91;4921982;28;19917;-86
2022/07/29 04:32:01;;;;;;;;;;;;;;;26.97;62.37;101375.25;4958282;28;19922;-86
2022/07/29 04:34:26;;;;;;;;;;;;;;;26.94;62.63;101370.78;4962426;28;20327;-85
2022/07/29 04:36:51;;;;;;;;;;;;;;;26.96;62.56;101377.03;4972157;28;19937;-86
2022/07/29 04:39:18;;;;;;;;;;;;;;;26.95;62.57;101380.63;4970214;28;20323;-85
2022/07/29 04:41:43;;;;;;;;;;;;;;;26.96;62.64;101378.81;4952791;28;19921;-84
2022/07/29 04:44:09;;;;;;;;;;;;;;;26.95;62.59;101379.72;4972201;28;19918;-86
2022/07/29 04:46:34;;;;;;;;;;;;;;;26.93;62.61;101379.72;4964070;28;19922;-85
2022/07/29 04:49:00;;;;;;;;;;;;;;;26.94;62.82;101385.97;4970552;28;20582;-85
2022/07/29 04:51:25;;;;;;;;;;;;;;;26.93;62.68;101387.78;4984203;28;19925;-85
2022/07/29 04:53:51;;;;;;;;;;;;;;;26.63;62.63;101335.19;4994407;28;19922;-86
2022/07/29 04:56:16;;;;;;;;;;;;;;;26.93;62.61;101386.88;4961449;28;19921;-84
2022/07/29 04:58:41;;;;;;;;;;;;;;;26.94;62.76;101383.28;4977402;28;19921;-84
2022/07/29 05:01:07;;;;;;;;;;;;;;;26.90;63.02;101382.44;4994734;28;20348;-93
2022/07/29 05:03:32;;;;;;;;;;;;;;;26.93;63.11;101384.19;4961277;28;19921;-89
2022/07/29 05:05:59;;;;;;;;;;;;;;;26.94;63.16;101383.28;4960892;28;19921;-86
2022/07/29 05:08:24;;;;;;;;;;;;;;;26.93;62.89;101381.53;4977192;28;20001;-88
2022/07/29 05:10:51;;;;;;;;;;;;;;;26.90;63.05;101381.53;4960966;28;20005;-89
2022/07/29 05:13:16;;;;;;;;;;;;;;;26.93;63.25;101384.19;4961359;28;19914;-90
2022/07/29 05:15:41;;;;;;;;;;;;;;;26.93;62.91;101376.16;4954813;28;19922;-87
2022/07/29 05:18:07;;;;;;;;;;;;;;;26.92;63.19;101379.72;4960868;28;19914;-87
2022/07/29 05:20:33;;;;;;;;;;;;;;;26.94;63.03;101375.25;4952744;28;19919;-88
2022/07/29 05:22:59;;;;;;;;;;;;;;;26.90;63.07;101379.75;4960426;28;19914;-87
2022/07/29 05:25:25;;;;;;;;;;;;;;;26.91;63.26;101375.28;4988965;28;19921;-87
2022/07/29 05:27:51;;;;;;;;;;;;;;;26.87;63.14;101385.09;4960773;28;19924;-87
2022/07/29 05:30:16;;;;;;;;;;;;;;;26.88;63.31;101377.94;4993942;28;20017;-86
2022/07/29 05:32:42;;;;;;;;;;;;;;;26.89;63.18;101379.75;4993233;28;19918;-86
2022/07/29 05:35:07;;;;;;;;;;;;;;;26.91;63.18;101380.63;4976806;28;19936;-87
2022/07/29 05:37:33;;;;;;;;;;;;;;;26.90;63.26;101379.75;4994205;28;20342;-87
2022/07/29 05:39:58;;;;;;;;;;;;;;;26.90;63.14;101378.84;4963027;28;20352;-86
2022/07/29 05:42:24;;;;;;;;;;;;;;;26.91;63.20;101386.00;4976588;28;19919;-87
2022/07/29 05:44:50;;;;;;;;;;;;;;;26.86;63.14;101385.09;4976719;28;19957;-87
2022/07/29 05:47:16;;;;;;;;;;;;;;;26.84;63.30;101381.53;4992392;28;19917;-87
2022/07/29 05:49:41;;;;;;;;;;;;;;;26.81;63.47;101386.00;4974058;28;20418;-84
2022/07/29 05:52:07;;;;;;;;;;;;;;;26.87;63.04;101378.88;4976166;28;19918;-86
2022/07/29 05:54:32;;;;;;;;;;;;;;;26.72;63.50;101382.50;4971777;28;19921;-86
2022/07/29 05:56:58;;;;;;;;;;;;;;;26.78;63.49;101382.47;4984310;28;19917;-86
2022/07/29 05:59:23;;;;;;;;;;;;;;;26.79;62.96;101390.47;4992639;28;19914;-88
2022/07/29 06:01:48;;;;;;;;;;;;;;;26.82;63.47;101386.94;4982755;28;19934;-86
2022/07/29 06:04:14;;;;;;;;;;;;;;;26.71;63.23;101384.28;4989944;28;20359;-86
2022/07/29 06:06:40;;;;;;;;;;;;;;;26.75;63.45;101395.84;4987916;28;20032;-87
2022/07/29 06:09:05;;;;;;;;;;;;;;;26.78;63.32;101386.03;4970919;28;19977;-87
2022/07/29 06:11:30;;;;;;;;;;;;;;;26.83;63.10;101388.69;4986200;28;19972;-86
2022/07/29 06:13:56;;;;;;;;;;;;;;;26.80;63.18;101397.63;4986579;28;20012;-86
2022/07/29 06:16:21;;;;;;;;;;;;;;;26.75;62.79;101390.50;4989458;28;20403;-85
2022/07/29 06:18:50;;;;;;;;;;;;;;;26.76;62.76;101393.19;4969995;28;19917;-86
2022/07/29 06:21:16;;;;;;;;;;;;;;;26.81;62.73;101395.84;5007332;28;19913;-86
2022/07/29 06:23:42;;;;;;;;;;;;;;;26.86;62.64;101394.06;4986672;28;20463;-84
2022/07/29 06:26:08;;;;;;;;;;;;;;;26.81;62.22;101398.53;4984669;28;19917;-84
2022/07/29 06:28:34;;;;;;;;;;;;;;;26.82;62.68;101400.31;4982414;28;19914;-84
2022/07/29 06:30:59;;;;;;;;;;;;;;;26.85;62.55;101396.75;4969651;28;19924;-84
2022/07/29 06:33:25;;;;;;;;;;;;;;;26.85;62.53;101405.66;4992013;28;20387;-84
2022/07/29 06:35:50;;;;;;;;;;;;;;;26.89;62.26;101401.19;4982479;28;19924;-84
2022/07/29 06:38:15;;;;;;;;;;;;;;;26.83;62.56;101402.09;4986698;28;19945;-85
2022/07/29 06:41:03;;;;;;;;;;;;;;;26.84;62.53;101401.22;4981461;28;20415;-86
2022/07/29 06:43:31;;;;;;;;;;;;;;;26.87;62.85;101397.63;4976576;28;19914;-85
2022/07/29 06:45:57;;;;;;;;;;;;;;;26.84;62.75;101401.22;4990284;28;19917;-86
2022/07/29 06:48:23;;;;;;;;;;;;;;;26.91;62.83;101407.44;4981615;28;19968;-85
2022/07/29 06:50:48;;;;;;;;;;;;;;;26.94;62.79;101410.09;4989129;28;20016;-85
2022/07/29 06:53:13;;;;;;;;;;;;;;;26.90;63.03;101411.00;4993321;28;19913;-86
2022/07/29 06:55:39;;;;;;;;;;;;;;;26.86;62.86;101410.13;4973550;28;19936;-85
2022/07/29 06:58:04;;;;;;;;;;;;;;;26.92;62.62;101398.50;4993065;28;20074;-85
2022/07/29 07:00:30;;;;;;;;;;;;;;;26.87;62.88;101405.66;4990201;28;20421;-86
2022/07/29 07:02:55;;;;;;;;;;;;;;;26.79;62.64;101400.31;4988770;28;19914;-86
2022/07/29 07:05:21;;;;;;;;;;;;;;;26.86;62.36;101414.59;4990732;28;19925;-86
2022/07/29 07:07:46;;;;;;;;;;;;;;;26.81;62.58;101409.25;4991113;28;19914;-85
2022/07/29 07:10:12;;;;;;;;;;;;;;;26.89;62.42;101409.22;4975205;28;19917;-85
2022/07/29 07:12:37;;;;;;;;;;;;;;;26.86;62.36;101418.19;4991725;28;19914;-85
2022/07/29 07:15:03;;;;;;;;;;;;;;;26.89;62.43;101409.22;4990165;28;20303;-85
2022/07/29 07:17:28;;;;;;;;;;;;;;;26.87;62.54;101411.91;4991070;28;19913;-86
2022/07/29 07:19:54;;;;;;;;;;;;;;;26.92;62.38;101411.88;4989898;28;19918;-86
2022/07/29 07:22:20;;;;;;;;;;;;;;;26.91;62.39;101408.31;4991144;28;20360;-87
2022/07/29 07:24:46;;;;;;;;;;;;;;;26.88;62.56;101405.66;4990968;28;19913;-86
2022/07/29 07:27:11;;;;;;;;;;;;;;;26.90;62.37;101409.25;4988564;28;20379;-86
2022/07/29 07:29:36;;;;;;;;;;;;;;;26.92;62.75;101406.53;4992762;28;20375;-86
2022/07/29 07:32:02;;;;;;;;;;;;;;;27.01;62.27;101415.44;4991211;28;19929;-88
2022/07/29 07:34:30;;;;;;;;;;;;;;;26.94;62.50;101412.78;4965928;28;20080;-88
2022/07/29 07:36:55;;;;;;;;;;;;;;;27.02;62.36;101419.88;4971168;28;20000;-86
2022/07/29 07:39:21;;;;;;;;;;;;;;;26.95;62.13;101417.25;4989241;28;19957;-86
2022/07/29 07:41:46;;;;;;;;;;;;;;;26.97;61.85;101418.16;4972772;28;19935;-86
2022/07/29 07:44:11;;;;;;;;;;;;;;;26.95;62.35;101420.81;4991737;28;19913;-85
2022/07/29 07:46:37;;;;;;;;;;;;;;;26.93;62.01;101424.41;4990435;28;20527;-85
2022/07/29 07:49:02;;;;;;;;;;;;;;;26.93;62.02;101427.97;4983432;28;20470;-86
2022/07/29 07:51:28;;;;;;;;;;;;;;;26.98;61.79;101425.28;4991036;28;20280;-86
2022/07/29 07:53:53;;;;;;;;;;;;;;;27.07;61.88;101433.28;4991023;28;19918;-85
2022/07/29 07:56:19;;;;;;;;;;;;;;;26.95;61.76;101415.47;4968499;28;19917;-86
2022/07/29 07:58:44;;;;;;;;;;;;;;;27.01;61.63;101426.16;4987307;28;19941;-86
2022/07/29 08:01:09;;;;;;;;;;;;;;;26.98;61.73;101427.94;4989700;28;19935;-86
2022/07/29 08:03:35;;;;;;;;;;;;;;;27.13;61.77;101429.69;4985982;28;19960;-86
2022/07/29 08:06:00;;;;;;;;;;;;;;;27.02;61.59;101427.94;4989142;28;19914;-85
2022/07/29 08:08:26;;;;;;;;;;;;;;;27.12;61.64;101431.47;4982492;28;19918;-85
2022/07/29 08:10:52;;;;;;;;;;;;;;;27.16;61.76;101433.25;4991642;28;19922;-86
2022/07/29 08:13:19;;;;;;;;;;;;;;;27.18;61.58;101419.84;4992934;28;20039;-84
2022/07/29 08:15:45;;;;;;;;;;;;;;;26.98;61.55;101418.13;4987790;28;19918;-84
2022/07/29 08:18:10;;;;;;;;;;;;;;;26.92;61.20;101426.19;4987914;28;19922;-87
2022/07/29 08:20:37;;;;;;;;;;;;;;;26.91;61.03;101421.72;4954862;28;20050;-84
2022/07/29 08:23:04;;;;;;;;;;;;;;;27.11;61.57;101431.47;4959582;28;19918;-87
2022/07/29 08:25:29;;;;;;;;;;;;;;;27.07;61.53;101424.34;4980893;28;20373;-86
2022/07/29 08:27:55;;;;;;;;;;;;;;;27.08;61.29;101421.66;4977844;28;20123;-87
2022/07/29 08:30:20;;;;;;;;;;;;;;;27.03;61.39;101423.47;4991240;28;19925;-86
2022/07/29 08:32:47;;;;;;;;;;;;;;;27.08;60.72;101424.34;4991755;28;20315;-86
2022/07/29 08:35:12;;;;;;;;;;;;;;;27.13;61.19;101430.56;4990576;28;20288;-86
2022/07/29 08:37:38;;;;;;;;;;;;;;;27.11;61.35;101421.63;4990547;28;19913;-87
2022/07/29 08:40:03;;;;;;;;;;;;;;;27.03;61.38;101428.84;4985968;28;20360;-88
2022/07/29 08:42:29;;;;;;;;;;;;;;;27.15;61.09;101419.84;4979801;28;19925;-86
2022/07/29 08:44:54;;;;;;;;;;;;;;;27.12;61.09;101423.44;4988588;28;19913;-87
2022/07/29 08:47:20;;;;;;;;;;;;;;;27.07;60.85;101424.34;4993378;28;19920;-87
2022/07/29 08:49:46;;;;;;;;;;;;;;;27.14;61.40;101426.13;4993255;28;20342;-87
2022/07/29 08:52:12;;;;;;;;;;;;;;;27.18;61.96;101423.41;4992003;28;19972;-85
2022/07/29 08:54:38;;;;;;;;;;;;;;;27.03;60.92;101428.84;4989301;28;19918;-85
2022/07/29 08:57:04;;;;;;;;;;;;;;;26.98;61.09;101423.47;4988583;28;19918;-87
2022/07/29 08:59:30;;;;;;;;;;;;;;;27.15;61.58;101425.22;4990297;28;20372;-86
2022/07/29 09:01:56;;;;;;;;;;;;;;;27.16;60.93;101419.84;4989325;28;19989;-86
2022/07/29 09:04:22;;;;;;;;;;;;;;;27.15;60.73;101426.09;4989309;28;20422;-87
2022/07/29 09:06:49;;;;;;;;;;;;;;;27.14;61.07;101423.44;4993889;28;19936;-87
2022/07/29 09:09:15;;;;;;;;;;;;;;;27.13;60.73;101414.47;4993619;28;20012;-88
2022/07/29 09:11:41;;;;;;;;;;;;;;;27.09;60.43;101417.19;4987976;28;20024;-87
2022/07/29 09:14:06;;;;;;;;;;;;;;;27.15;60.58;101410.00;4990270;28;20310;-87
2022/07/29 09:16:48;;;;;;;;;;;;;;;27.14;61.03;101412.72;4992046;28;20013;-87
2022/07/29 09:19:20;;;;;;;;;;;;;;;27.17;61.00;101405.53;4992843;28;19936;-85
2022/07/29 09:21:57;;;;;;;;;;;;;;;27.24;60.83;101403.75;4993796;28;19917;-86
2022/07/29 09:24:23;;;;;;;;;;;;;;;27.25;60.99;101412.69;4992739;28;20299;-86
2022/07/29 09:26:49;;;;;;;;;;;;;;;27.19;60.37;101405.53;4989112;28;19921;-87
2022/07/29 09:29:15;;;;;;;;;;;;;;;27.19;60.43;101409.09;4983660;28;20415;-85
2022/07/29 09:31:42;;;;;;;;;;;;;;;27.13;60.15;101406.44;4992014;28;19917;-86
2022/07/29 09:34:07;;;;;;;;;;;;;;;27.16;60.13;101402.88;4992532;28;20399;-85
2022/07/29 09:36:45;;;;;;;;;;;;;;;27.15;60.44;101398.41;4993760;28;19914;-86
2022/07/29 09:39:10;;;;;;;;;;;;;;;27.20;60.56;101400.16;4992451;28;19914;-85
2022/07/29 09:41:45;;;;;;;;;;;;;;;27.18;60.30;101401.97;4993606;28;19914;-86
2022/07/29 09:44:10;;;;;;;;;;;;;;;27.28;60.77;101385.84;4993132;28;19921;-86
2022/07/29 09:46:36;;;;;;;;;;;;;;;27.27;60.52;101390.34;4976136;28;19914;-86
2022/07/29 09:49:08;;;;;;;;;;;;;;;27.15;60.72;101395.72;4992695;28;19933;-86
2022/07/29 09:51:34;;;;;;;;;;;;;;;27.28;60.47;101391.22;4993857;28;20375;-86
2022/07/29 09:54:00;;;;;;;;;;;;;;;27.20;61.25;101396.59;4975921;28;19920;-86
2022/07/29 09:56:43;;;;;;;;;;;;;;;27.27;61.37;101389.44;4993525;28;19958;-87
2022/07/29 09:59:09;;;;;;;;;;;;;;;27.24;60.45;101408.22;4993340;28;19979;-86
2022/07/29 10:01:35;;;;;;;;;;;;;;;27.28;60.67;101397.47;4975953;28;19914;-85
2022/07/29 10:04:01;;;;;;;;;;;;;;;27.29;60.52;101393.91;4962641;28;19964;-86
2022/07/29 10:06:26;;;;;;;;;;;;;;;27.28;60.71;101394.78;4973464;28;19922;-86
2022/07/29 10:08:52;;;;;;;;;;;;;;;27.31;61.02;101400.16;4992971;28;19924;-86
2022/07/29 10:11:18;;;;;;;;;;;;;;;27.24;60.77;101397.50;4963847;28;20009;-86
2022/07/29 10:13:44;;;;;;;;;;;;;;;27.33;61.02;101392.09;4992632;28;20037;-86
2022/07/29 10:16:10;;;;;;;;;;;;;;;27.32;61.08;101401.91;4993402;28;19913;-87
2022/07/29 10:18:38;;;;;;;;;;;;;;;27.30;61.23;101400.16;4976340;28;20471;-86
2022/07/29 10:21:03;;;;;;;;;;;;;;;27.25;61.15;101392.13;4991893;28;19914;-87
2022/07/29 10:23:29;;;;;;;;;;;;;;;27.31;60.15;101396.59;4991765;28;19921;-87
2022/07/29 10:25:55;;;;;;;;;;;;;;;27.36;60.49;101392.06;4991929;28;19913;-85
2022/07/29 10:28:20;;;;;;;;;;;;;;;27.31;60.16;101391.22;4974770;28;20293;-86
2022/07/29 10:30:45;;;;;;;;;;;;;;;27.39;60.78;101392.97;4972607;28;19972;-86
2022/07/29 10:33:30;;;;;;;;;;;;;;;27.33;60.40;101392.97;4986246;28;20138;-86
2022/07/29 10:36:04;;;;;;;;;;;;;;;27.29;60.49;101382.28;4983406;28;19961;-86
2022/07/29 10:38:44;;;;;;;;;;;;;;;27.36;60.56;101378.66;4990414;28;20033;-86
2022/07/29 10:41:28;;;;;;;;;;;;;;;27.35;60.67;101380.47;4993270;28;20277;-86
2022/07/29 10:44:17;;;;;;;;;;;;;;;27.30;59.98;101378.69;4991709;28;19914;-86
2022/07/29 10:46:42;;;;;;;;;;;;;;;27.33;60.95;101387.63;4978519;28;19917;-86
2022/07/29 10:49:15;;;;;;;;;;;;;;;27.37;61.75;101380.47;4992272;28;20323;-85
2022/07/29 10:51:59;;;;;;;;;;;;;;;27.37;60.37;101380.47;4991216;28;19918;-87
2022/07/29 10:54:37;;;;;;;;;;;;;;;27.38;60.97;101380.44;4981240;28;19920;-88
2022/07/29 10:57:21;;;;;;;;;;;;;;;27.41;60.68;101379.50;4991440;28;19918;-87
2022/07/29 10:59:51;;;;;;;;;;;;;;;27.34;60.59;101383.13;4992689;28;19914;-86
2022/07/29 11:02:50;;;;;;;;;;;;;;;27.41;60.65;101384.88;4990941;28;19914;-87
2022/07/29 11:05:18;;;;;;;;;;;;;;;27.43;60.31;101377.72;4978154;28;19914;-88
2022/07/29 11:08:02;;;;;;;;;;;;;;;27.40;60.17;101381.31;4982103;28;20503;-87
2022/07/29 11:10:28;;;;;;;;;;;;;;;27.45;60.67;101377.72;4989802;28;20379;-87
2022/07/29 11:12:53;;;;;;;;;;;;;;;27.40;60.07;101375.06;4991270;28;19920;-87
2022/07/29 11:15:23;;;;;;;;;;;;;;;27.50;60.12;101370.53;4991361;28;19921;-86
2022/07/29 11:17:52;;;;;;;;;;;;;;;27.40;59.95;101369.69;4991021;28;20010;-86
2022/07/29 11:20:31;;;;;;;;;;;;;;;27.46;60.24;101375.03;4992515;28;19914;-86
2022/07/29 11:22:57;;;;;;;;;;;;;;;27.45;61.02;101375.03;4990584;28;19913;-87
2022/07/29 11:25:22;;;;;;;;;;;;;;;27.51;60.30;101372.31;4991353;28;19925;-87
2022/07/29 11:27:47;;;;;;;;;;;;;;;27.50;61.23;101366.06;4975618;28;19924;-88
2022/07/29 11:30:13;;;;;;;;;;;;;;;27.51;61.11;101367.81;4990430;28;19960;-87
2022/07/29 11:32:40;;;;;;;;;;;;;;;27.53;61.16;101368.72;4971948;28;19918;-88
2022/07/29 11:35:11;;;;;;;;;;;;;;;27.55;60.71;101366.91;4985294;28;19914;-87
2022/07/29 11:37:37;;;;;;;;;;;;;;;27.54;61.12;101358.91;4982978;28;19945;-87
2022/07/29 11:40:06;;;;;;;;;;;;;;;27.53;60.85;101357.09;4990464;28;20391;-87
2022/07/29 11:42:34;;;;;;;;;;;;;;;27.56;61.04;101351.72;4991133;28;20020;-86
2022/07/29 11:45:05;;;;;;;;;;;;;;;27.56;60.77;101349.94;4987350;28;19953;-87
2022/07/29 11:47:31;;;;;;;;;;;;;;;27.58;61.66;101352.56;4990640;28;19922;-88
2022/07/29 11:50:01;;;;;;;;;;;;;;;27.56;61.16;101354.41;4991864;28;20414;-87
2022/07/29 11:52:47;;;;;;;;;;;;;;;27.55;61.26;101355.28;4977801;28;19917;-86
2022/07/29 11:55:17;;;;;;;;;;;;;;;27.56;61.00;101349.03;4962020;28;19937;-87
2022/07/29 11:57:52;;;;;;;;;;;;;;;27.61;61.07;101347.19;4967620;28;19969;-87
2022/07/29 12:00:45;;;;;;;;;;;;;;;27.57;61.09;101334.72;4956130;28;19997;-87
2022/07/29 12:03:11;;;;;;;;;;;;;;;27.60;61.31;101337.34;4991294;28;20397;-88
2022/07/29 12:05:36;;;;;;;;;;;;;;;27.63;61.05;101336.47;4978193;28;20110;-86
2022/07/29 12:08:11;;;;;;;;;;;;;;;27.60;61.04;101332.91;4994685;28;20399;-86
2022/07/29 12:10:37;;;;;;;;;;;;;;;27.64;61.14;101331.06;4977834;28;19918;-86
2022/07/29 12:13:03;;;;;;;;;;;;;;;27.64;61.58;101332.88;4994574;28;19984;-85
2022/07/29 12:15:28;;;;;;;;;;;;;;;27.62;61.42;101335.56;4994681;28;20358;-86
2022/07/29 12:17:54;;;;;;;;;;;;;;;27.65;61.29;101335.56;4994817;28;19921;-84
2022/07/29 12:20:23;;;;;;;;;;;;;;;27.63;61.57;101337.34;4995713;28;19921;-86
2022/07/29 12:22:49;;;;;;;;;;;;;;;27.65;60.99;101332.88;4994426;28;19921;-86
2022/07/29 12:25:16;;;;;;;;;;;;;;;27.69;61.54;101329.25;4995718;28;19914;-86
2022/07/29 12:27:44;;;;;;;;;;;;;;;27.67;61.25;101331.06;4982508;28;20002;-86
2022/07/29 12:30:11;;;;;;;;;;;;;;;27.68;61.45;101323.88;4978524;28;20410;-87
2022/07/29 12:32:38;;;;;;;;;;;;;;;27.64;61.45;101325.69;4994254;28;19921;-86
2022/07/29 12:35:08;;;;;;;;;;;;;;;27.69;61.01;101328.38;4993906;28;19924;-86
2022/07/29 12:37:34;;;;;;;;;;;;;;;27.67;61.67;101322.13;4977826;28;20000;-86
2022/07/29 12:40:00;;;;;;;;;;;;;;;27.70;61.46;101316.72;4977429;28;19914;-85